createdAt,value
2019-03-20T00:00:34.754Z,86.04
2019-03-20T00:03:04.100Z,86.08
2019-03-20T00:05:32.752Z,86.27
2019-03-20T00:08:01.332Z,86.32
2019-03-20T00:10:30.088Z,86.54
2019-03-20T00:12:58.778Z,86.56
2019-03-20T00:15:27.372Z,86.97
2019-03-20T00:17:55.945Z,86.77
2019-03-20T00:20:24.591Z,86.57
2019-03-20T00:22:53.171Z,86.39
2019-03-20T00:25:21.786Z,86.40
2019-03-20T00:27:50.662Z,86.57
2019-03-20T00:30:20.457Z,86.78
2019-03-20T00:32:49.090Z,86.77
2019-03-20T00:35:17.672Z,87.40
2019-03-20T00:37:46.276Z,86.88
2019-03-20T00:40:16.822Z,86.95
2019-03-20T00:42:45.451Z,87.06
2019-03-20T00:45:16.130Z,87.60
2019-03-20T00:47:44.722Z,87.54
2019-03-20T00:50:17.884Z,87.04
2019-03-20T00:52:46.692Z,86.47
2019-03-20T00:55:16.376Z,86.05
2019-03-20T00:57:45.156Z,85.89
2019-03-20T01:00:24.219Z,85.76
2019-03-20T01:02:52.997Z,85.82
2019-03-20T01:05:21.897Z,85.55
2019-03-20T01:07:50.696Z,85.75
2019-03-20T01:10:23.526Z,85.82
2019-03-20T01:12:52.237Z,85.73
2019-03-20T01:15:20.838Z,86.15
2019-03-20T01:17:49.529Z,86.14
2019-03-20T01:20:21.963Z,86.15
2019-03-20T01:22:50.599Z,86.53
2019-03-20T01:25:19.811Z,86.94
2019-03-20T01:27:48.416Z,86.82
2019-03-20T01:30:31.386Z,86.85
2019-03-20T01:33:02.414Z,86.99
2019-03-20T01:35:30.987Z,87.05
2019-03-20T01:37:59.569Z,87.20
2019-03-20T01:40:28.147Z,87.45
2019-03-20T01:42:56.833Z,87.30
2019-03-20T01:45:25.412Z,87.23
2019-03-20T01:47:53.994Z,87.33
2019-03-20T01:50:22.694Z,87.33
2019-03-20T01:52:51.273Z,87.43
2019-03-20T01:55:19.917Z,87.39
2019-03-20T01:57:48.568Z,87.39
2019-03-20T02:00:17.279Z,87.51
2019-03-20T02:02:45.867Z,87.73
2019-03-20T02:05:14.853Z,87.64
2019-03-20T02:07:43.541Z,87.56
2019-03-20T02:10:14.212Z,87.76
2019-03-20T02:12:42.799Z,87.89
2019-03-20T02:15:19.096Z,87.83
2019-03-20T02:17:47.671Z,87.83
2019-03-20T02:20:17.254Z,87.95
2019-03-20T02:22:45.835Z,87.93
2019-03-20T02:25:15.290Z,88.25
2019-03-20T02:27:43.858Z,88.19
2019-03-20T02:30:20.105Z,88.39
2019-03-20T02:32:48.696Z,88.86
2019-03-20T02:35:17.268Z,88.54
2019-03-20T02:37:45.921Z,88.47
2019-03-20T02:40:15.394Z,88.45
2019-03-20T02:42:44.052Z,88.34
2019-03-20T02:45:18.450Z,88.25
2019-03-20T02:47:47.043Z,88.33
2019-03-20T02:50:15.982Z,88.65
2019-03-20T02:52:44.766Z,88.67
2019-03-20T02:55:14.148Z,88.67
2019-03-20T02:57:42.729Z,88.53
2019-03-20T03:00:16.765Z,88.43
2019-03-20T03:02:45.434Z,88.56
2019-03-20T03:05:15.223Z,88.79
2019-03-20T03:07:43.815Z,88.90
2019-03-20T03:10:14.418Z,88.85
2019-03-20T03:12:43.003Z,88.76
2019-03-20T03:15:12.638Z,88.87
2019-03-20T03:17:41.313Z,89.35
2019-03-20T03:20:14.978Z,89.78
2019-03-20T03:22:43.649Z,89.30
2019-03-20T03:25:14.386Z,89.12
2019-03-20T03:27:43.020Z,89.14
2019-03-20T03:30:18.280Z,89.02
2019-03-20T03:32:47.232Z,88.92
2019-03-20T03:35:19.112Z,88.87
2019-03-20T03:37:46.379Z,88.73
2019-03-20T03:40:16.590Z,88.62
2019-03-20T03:42:45.509Z,88.55
2019-03-20T03:45:15.562Z,88.46
2019-03-20T03:47:44.166Z,88.42
2019-03-20T03:50:13.328Z,88.52
2019-03-20T03:52:41.905Z,88.57
2019-03-20T03:55:12.052Z,88.76
2019-03-20T03:57:40.644Z,89.24
2019-03-20T04:00:12.496Z,89.31
2019-03-20T04:02:41.061Z,89.10
2019-03-20T04:05:09.836Z,89.02
2019-03-20T04:07:38.421Z,89.04
2019-03-20T04:10:17.862Z,89.07
2019-03-20T04:12:46.433Z,88.95
2019-03-20T04:15:15.644Z,88.99
2019-03-20T04:17:44.238Z,89.04
2019-03-20T04:20:14.429Z,89.02
2019-03-20T04:22:43.011Z,89.09
2019-03-20T04:25:12.492Z,89.72
2019-03-20T04:27:41.248Z,89.67
2019-03-20T04:30:16.679Z,89.71
2019-03-20T04:32:45.669Z,89.67
2019-03-20T04:35:14.436Z,90.06
2019-03-20T04:37:43.025Z,90.54
2019-03-20T04:40:13.673Z,90.93
2019-03-20T04:42:42.255Z,90.90
2019-03-20T04:45:13.430Z,91.41
2019-03-20T04:47:42.174Z,91.39
2019-03-20T04:50:14.562Z,91.42
2019-03-20T04:52:43.310Z,91.44
2019-03-20T04:55:12.982Z,91.17
2019-03-20T04:57:41.565Z,91.33
2019-03-20T05:00:21.668Z,91.05
2019-03-20T05:02:50.275Z,90.61
2019-03-20T05:05:18.947Z,90.07
2019-03-20T05:07:47.551Z,89.90
2019-03-20T05:10:20.530Z,89.88
2019-03-20T05:12:49.306Z,89.76
2019-03-20T05:15:17.980Z,89.57
2019-03-20T05:17:46.568Z,89.73
2019-03-20T05:20:18.875Z,89.98
2019-03-20T05:22:47.555Z,90.22
2019-03-20T05:25:16.214Z,90.45
2019-03-20T05:27:44.817Z,90.49
2019-03-20T05:30:16.848Z,90.79
2019-03-20T05:32:45.632Z,91.35
2019-03-20T05:35:14.312Z,91.01
2019-03-20T05:37:42.910Z,90.65
2019-03-20T05:40:16.383Z,90.61
2019-03-20T05:42:44.969Z,90.40
2019-03-20T05:45:21.067Z,90.29
2019-03-20T05:47:49.782Z,90.36
2019-03-20T05:50:18.771Z,90.22
2019-03-20T05:52:47.342Z,89.84
2019-03-20T05:55:15.927Z,89.59
2019-03-20T05:57:44.595Z,89.22
2019-03-20T06:00:15.644Z,89.01
2019-03-20T06:02:44.224Z,88.56
2019-03-20T06:05:13.013Z,88.61
2019-03-20T06:07:41.616Z,88.64
2019-03-20T06:10:12.659Z,88.54
2019-03-20T06:12:42.095Z,88.33
2019-03-20T06:15:10.964Z,87.81
2019-03-20T06:17:39.573Z,86.83
2019-03-20T06:20:12.509Z,86.62
2019-03-20T06:22:41.108Z,86.51
2019-03-20T06:25:11.488Z,85.64
2019-03-20T06:27:40.147Z,85.69
2019-03-20T06:30:21.272Z,85.57
2019-03-20T06:32:49.989Z,85.31
2019-03-20T06:35:18.567Z,85.30
2019-03-20T06:37:47.376Z,84.77
2019-03-20T06:40:17.823Z,83.86
2019-03-20T06:42:46.463Z,83.56
2019-03-20T06:45:20.733Z,83.70
2019-03-20T06:47:49.417Z,83.01
2019-03-20T06:50:22.230Z,82.46
2019-03-20T06:52:50.848Z,82.15
2019-03-20T06:55:19.583Z,82.50
2019-03-20T06:57:48.226Z,81.83
2019-03-20T07:00:25.637Z,81.23
2019-03-20T07:02:55.294Z,80.92
2019-03-20T07:05:32.795Z,80.33
2019-03-20T07:08:01.120Z,80.64
2019-03-20T07:10:41.657Z,80.31
2019-03-20T07:13:10.265Z,80.10
2019-03-20T07:15:39.006Z,80.09
2019-03-20T07:18:07.830Z,79.19
2019-03-20T07:20:36.414Z,79.34
2019-03-20T07:23:05.290Z,78.09
2019-03-20T07:25:33.899Z,77.46
2019-03-20T07:28:02.509Z,77.03
2019-03-20T07:30:31.208Z,76.58
2019-03-20T07:33:00.017Z,76.63
2019-03-20T07:35:28.768Z,75.85
2019-03-20T07:37:57.352Z,75.72
2019-03-20T07:40:25.937Z,74.76
2019-03-20T07:42:54.983Z,74.61
2019-03-20T07:45:23.554Z,74.40
2019-03-20T07:47:52.243Z,73.53
2019-03-20T07:50:20.889Z,73.44
2019-03-20T07:52:49.624Z,72.62
2019-03-20T07:55:18.207Z,72.49
2019-03-20T07:57:46.788Z,72.35
2019-03-20T08:00:15.378Z,71.93
2019-03-20T08:02:44.015Z,71.51
2019-03-20T08:05:12.585Z,71.59
2019-03-20T08:07:41.189Z,71.30
2019-03-20T08:10:14.718Z,70.75
2019-03-20T08:12:43.290Z,70.37
2019-03-20T08:15:16.256Z,69.79
2019-03-20T08:17:45.038Z,69.27
2019-03-20T08:20:22.234Z,69.66
2019-03-20T08:22:50.811Z,69.43
2019-03-20T08:25:19.426Z,69.22
2019-03-20T08:27:47.969Z,69.26
2019-03-20T08:30:17.773Z,66.64
2019-03-20T08:32:46.471Z,64.55
2019-03-20T08:35:15.652Z,62.74
2019-03-20T08:37:44.234Z,61.75
2019-03-20T08:40:18.143Z,62.52
2019-03-20T08:42:46.724Z,61.92
2019-03-20T08:45:18.790Z,62.47
2019-03-20T08:47:47.481Z,62.54
2019-03-20T08:50:24.136Z,62.71
2019-03-20T08:52:52.634Z,62.47
2019-03-20T08:55:22.124Z,62.39
2019-03-20T08:57:50.707Z,62.84
2019-03-20T09:00:23.044Z,62.50
2019-03-20T09:02:51.931Z,62.09
2019-03-20T09:05:20.524Z,62.29
2019-03-20T09:07:49.347Z,62.30
2019-03-20T09:10:23.079Z,62.25
2019-03-20T09:12:51.603Z,62.26
2019-03-20T09:15:21.011Z,61.75
2019-03-20T09:17:49.596Z,61.91
2019-03-20T09:20:22.128Z,61.65
2019-03-20T09:22:50.862Z,60.76
2019-03-20T09:25:24.184Z,60.71
2019-03-20T09:27:52.775Z,61.04
2019-03-20T09:30:22.334Z,61.54
2019-03-20T09:32:51.197Z,61.72
2019-03-20T09:35:19.873Z,62.27
2019-03-20T09:37:52.404Z,62.40
2019-03-20T09:40:23.337Z,62.45
2019-03-20T09:42:51.374Z,62.49
2019-03-20T09:45:21.060Z,62.75
2019-03-20T09:47:49.817Z,62.56
2019-03-20T09:50:22.471Z,62.66
2019-03-20T09:52:51.202Z,61.67
2019-03-20T09:55:19.759Z,61.13
2019-03-20T09:57:48.357Z,61.04
2019-03-20T10:00:24.332Z,61.02
2019-03-20T10:02:53.017Z,60.50
2019-03-20T10:05:21.820Z,60.53
2019-03-20T10:07:50.400Z,60.71
2019-03-20T10:10:26.471Z,60.65
2019-03-20T10:12:54.979Z,60.44
2019-03-20T10:15:27.608Z,60.62
2019-03-20T10:17:56.194Z,61.23
2019-03-20T10:20:25.013Z,61.11
2019-03-20T10:22:53.447Z,61.31
2019-03-20T10:25:22.064Z,61.45
2019-03-20T10:27:51.963Z,61.34
2019-03-20T10:30:25.647Z,60.96
2019-03-20T10:32:54.162Z,61.05
2019-03-20T10:35:22.743Z,60.85
2019-03-20T10:37:51.352Z,61.10
2019-03-20T10:40:26.796Z,60.81
2019-03-20T10:42:55.374Z,60.16
2019-03-20T10:45:24.057Z,59.55
2019-03-20T10:47:53.380Z,59.99
2019-03-20T10:50:25.924Z,59.91
2019-03-20T10:52:54.513Z,59.42
2019-03-20T10:55:23.198Z,59.17
2019-03-20T10:57:51.808Z,58.55
2019-03-20T11:00:30.099Z,59.24
2019-03-20T11:02:58.737Z,58.52
2019-03-20T11:05:27.462Z,58.23
2019-03-20T11:07:56.081Z,57.59
2019-03-20T11:10:25.467Z,57.16
2019-03-20T11:12:54.268Z,57.02
2019-03-20T11:15:23.599Z,57.49
2019-03-20T11:17:52.299Z,57.96
2019-03-20T11:20:22.314Z,57.80
2019-03-20T11:22:50.877Z,57.69
2019-03-20T11:25:22.393Z,58.23
2019-03-20T11:27:51.118Z,58.27
2019-03-20T11:30:25.425Z,58.77
2019-03-20T11:32:54.225Z,58.77
2019-03-20T11:35:22.795Z,58.28
2019-03-20T11:37:51.470Z,58.19
2019-03-20T11:40:28.282Z,58.34
2019-03-20T11:42:56.828Z,58.50
2019-03-20T11:45:25.730Z,58.12
2019-03-20T11:47:54.297Z,57.82
2019-03-20T11:50:25.636Z,58.15
2019-03-20T11:52:54.139Z,57.40
2019-03-20T11:55:22.752Z,57.10
2019-03-20T11:57:51.334Z,57.17
2019-03-20T12:00:21.101Z,56.49
2019-03-20T12:02:49.792Z,57.95
2019-03-20T12:05:18.310Z,56.96
2019-03-20T12:07:46.850Z,56.78
2019-03-20T12:10:29.733Z,56.25
2019-03-20T12:12:58.336Z,56.59
2019-03-20T12:15:26.985Z,57.08
2019-03-20T12:17:55.611Z,57.38
2019-03-20T12:20:25.087Z,57.05
2019-03-20T12:22:53.892Z,57.03
2019-03-20T12:25:30.631Z,56.63
2019-03-20T12:27:59.199Z,57.44
2019-03-20T12:30:32.703Z,57.44
2019-03-20T12:33:01.274Z,57.47
2019-03-20T12:35:32.756Z,57.73
2019-03-20T12:38:13.281Z,58.05
2019-03-20T12:40:31.885Z,58.05
2019-03-20T12:43:00.584Z,58.32
2019-03-20T12:45:36.364Z,58.43
2019-03-20T12:48:06.378Z,58.37
2019-03-20T12:50:35.050Z,58.12
2019-03-20T12:53:03.926Z,58.61
2019-03-20T12:55:32.521Z,58.50
2019-03-20T12:58:01.235Z,58.69
2019-03-20T13:00:29.810Z,58.13
2019-03-20T13:02:58.429Z,58.45
2019-03-20T13:05:26.934Z,58.63
2019-03-20T13:08:01.860Z,58.57
2019-03-20T13:10:26.971Z,58.47
2019-03-20T13:12:55.708Z,58.44
2019-03-20T13:15:25.013Z,59.19
2019-03-20T13:17:54.589Z,59.17
2019-03-20T13:20:23.623Z,58.69
2019-03-20T13:23:03.599Z,59.34
2019-03-20T13:25:32.203Z,59.23
2019-03-20T13:28:00.639Z,59.99
2019-03-20T13:30:41.288Z,59.70
2019-03-20T13:33:09.859Z,59.55
2019-03-20T13:35:38.467Z,59.47
2019-03-20T13:38:07.172Z,59.61
2019-03-20T13:40:35.707Z,59.52
2019-03-20T13:43:04.389Z,59.98
2019-03-20T13:45:32.962Z,59.60
2019-03-20T13:48:01.489Z,59.88
2019-03-20T13:50:29.926Z,59.80
2019-03-20T13:52:58.543Z,59.72
2019-03-20T13:55:27.052Z,59.92
2019-03-20T13:57:55.623Z,59.98
2019-03-20T14:00:27.759Z,60.30
2019-03-20T14:02:56.416Z,60.63
2019-03-20T14:05:24.993Z,60.16
2019-03-20T14:07:53.671Z,60.35
2019-03-20T14:10:25.437Z,60.73
2019-03-20T14:12:53.775Z,60.69
2019-03-20T14:15:22.231Z,60.95
2019-03-20T14:17:50.741Z,61.07
2019-03-20T14:20:30.640Z,61.48
2019-03-20T14:22:59.141Z,61.07
2019-03-20T14:25:27.812Z,61.43
2019-03-20T14:27:56.493Z,61.51
2019-03-20T14:30:26.299Z,61.53
2019-03-20T14:32:56.537Z,61.62
2019-03-20T14:35:26.630Z,61.75
2019-03-20T14:37:55.370Z,61.56
2019-03-20T14:40:35.296Z,61.69
2019-03-20T14:42:59.467Z,61.74
2019-03-20T14:45:28.306Z,61.63
2019-03-20T14:47:57.012Z,61.85
2019-03-20T14:50:26.519Z,62.25
2019-03-20T14:52:55.359Z,62.02
2019-03-20T14:55:24.101Z,62.04
2019-03-20T14:57:52.814Z,62.57
2019-03-20T15:00:26.241Z,62.47
2019-03-20T15:02:55.263Z,62.75
2019-03-20T15:05:23.936Z,63.10
2019-03-20T15:07:52.800Z,63.09
2019-03-20T15:10:26.300Z,63.48
2019-03-20T15:12:55.838Z,63.90
2019-03-20T15:15:47.218Z,63.98
2019-03-20T15:18:15.996Z,64.02
2019-03-20T15:20:44.726Z,63.95
2019-03-20T15:23:13.412Z,64.21
2019-03-20T15:25:42.103Z,64.39
2019-03-20T15:28:11.769Z,64.51
2019-03-20T15:30:40.496Z,64.53
2019-03-20T15:33:09.097Z,64.55
2019-03-20T15:35:37.785Z,64.64
2019-03-20T15:38:06.416Z,64.55
2019-03-20T15:40:35.139Z,64.96
2019-03-20T15:43:03.744Z,64.94
2019-03-20T15:45:32.396Z,65.10
2019-03-20T15:48:01.086Z,65.25
2019-03-20T15:50:29.698Z,65.49
2019-03-20T15:52:58.404Z,65.85
2019-03-20T15:55:29.574Z,66.01
2019-03-20T15:57:58.467Z,66.01
2019-03-20T16:00:27.390Z,66.22
2019-03-20T16:03:15.466Z,66.28
2019-03-20T16:05:44.104Z,66.61
2019-03-20T16:08:12.817Z,66.59
2019-03-20T16:10:41.501Z,66.94
2019-03-20T16:13:11.080Z,67.09
2019-03-20T16:15:39.728Z,67.39
2019-03-20T16:18:08.376Z,67.27
2019-03-20T16:20:36.990Z,67.60
2019-03-20T16:23:05.722Z,67.72
2019-03-20T16:25:34.358Z,67.56
2019-03-20T16:28:03.041Z,67.89
2019-03-20T16:30:32.939Z,67.88
2019-03-20T16:33:01.697Z,68.07
2019-03-20T16:35:30.279Z,68.18
2019-03-20T16:37:58.996Z,68.31
2019-03-20T16:40:38.081Z,68.26
2019-03-20T16:43:06.739Z,68.29
2019-03-20T16:45:38.807Z,68.22
2019-03-20T16:48:07.489Z,68.30
2019-03-20T16:50:36.169Z,68.35
2019-03-20T16:53:06.272Z,68.41
2019-03-20T16:55:35.051Z,68.66
2019-03-20T16:58:03.775Z,68.43
2019-03-20T17:00:33.077Z,68.59
2019-03-20T17:03:01.809Z,68.65
2019-03-20T17:05:31.193Z,68.74
2019-03-20T17:07:59.816Z,68.71
2019-03-20T17:10:39.342Z,68.75
2019-03-20T17:13:11.590Z,69.11
2019-03-20T17:15:44.761Z,69.11
2019-03-20T17:18:13.510Z,69.19
2019-03-20T17:20:42.192Z,69.66
2019-03-20T17:23:10.901Z,69.67
2019-03-20T17:25:39.521Z,69.61
2019-03-20T17:28:08.271Z,69.77
2019-03-20T17:30:39.791Z,70.10
2019-03-20T17:33:08.888Z,70.32
2019-03-20T17:35:37.566Z,70.52
2019-03-20T17:38:06.254Z,71.13
2019-03-20T17:40:35.117Z,71.22
2019-03-20T17:43:04.446Z,71.63
2019-03-20T17:45:33.441Z,72.01
2019-03-20T17:48:02.153Z,72.49
2019-03-20T17:50:32.467Z,72.97
2019-03-20T17:53:01.620Z,73.12
2019-03-20T17:55:30.422Z,73.31
2019-03-20T17:57:59.123Z,73.93
2019-03-20T18:00:50.600Z,74.49
2019-03-20T18:03:19.226Z,74.91
2019-03-20T18:05:47.906Z,75.13
2019-03-20T18:08:16.600Z,75.51
2019-03-20T18:10:45.294Z,75.88
2019-03-20T18:13:16.702Z,76.18
2019-03-20T18:15:45.687Z,76.57
2019-03-20T18:18:14.382Z,76.79
2019-03-20T18:20:43.003Z,77.25
2019-03-20T18:23:14.499Z,77.44
2019-03-20T18:25:42.421Z,77.77
2019-03-20T18:28:11.108Z,78.34
2019-03-20T18:30:41.629Z,78.40
2019-03-20T18:33:10.258Z,78.71
2019-03-20T18:35:38.940Z,79.10
2019-03-20T18:38:08.363Z,79.35
2019-03-20T18:40:37.061Z,79.47
2019-03-20T18:43:06.037Z,79.76
2019-03-20T18:45:34.751Z,80.20
2019-03-20T18:48:03.430Z,80.32
2019-03-20T18:50:32.080Z,81.20
2019-03-20T18:53:00.745Z,80.88
2019-03-20T18:55:29.457Z,81.22
2019-03-20T18:57:58.204Z,81.50
2019-03-20T19:00:29.158Z,81.73
2019-03-20T19:03:06.969Z,81.93
2019-03-20T19:05:55.015Z,82.66
2019-03-20T19:08:23.900Z,82.68
2019-03-20T19:10:52.585Z,82.95
2019-03-20T19:13:21.334Z,83.52
2019-03-20T19:15:50.129Z,83.75
2019-03-20T19:18:18.784Z,83.92
2019-03-20T19:20:47.500Z,84.25
2019-03-20T19:23:18.987Z,84.27
2019-03-20T19:25:47.660Z,84.49
2019-03-20T19:28:16.392Z,84.58
2019-03-20T19:30:45.107Z,84.66
2019-03-20T19:33:16.061Z,84.79
2019-03-20T19:35:44.278Z,84.81
2019-03-20T19:38:12.900Z,85.09
2019-03-20T19:40:41.647Z,85.23
2019-03-20T19:43:10.314Z,85.40
2019-03-20T19:45:38.998Z,85.17
2019-03-20T19:48:07.707Z,85.11
2019-03-20T19:50:36.359Z,85.35
2019-03-20T19:53:05.160Z,85.49
2019-03-20T19:55:33.931Z,85.35
2019-03-20T19:58:05.704Z,85.36
2019-03-20T20:00:34.463Z,85.39
2019-03-20T20:03:03.165Z,85.44
2019-03-20T20:05:32.013Z,85.49
2019-03-20T20:08:00.695Z,85.54
2019-03-20T20:10:29.317Z,85.42
2019-03-20T20:12:58.100Z,85.40
2019-03-20T20:15:33.426Z,85.51
2019-03-20T20:18:02.138Z,85.45
2019-03-20T20:20:35.207Z,85.42
2019-03-20T20:23:04.543Z,85.42
2019-03-20T20:25:33.469Z,85.52
2019-03-20T20:28:02.081Z,85.43
2019-03-20T20:30:30.826Z,85.33
2019-03-20T20:32:59.589Z,85.22
2019-03-20T20:35:28.370Z,85.36
2019-03-20T20:37:57.007Z,85.38
2019-03-20T20:40:29.889Z,85.43
2019-03-20T20:42:58.605Z,85.33
2019-03-20T20:45:27.399Z,85.30
2019-03-20T20:47:56.129Z,85.44
2019-03-20T20:50:24.905Z,85.49
2019-03-20T20:52:53.599Z,85.61
2019-03-20T20:55:24.303Z,85.43
2019-03-20T20:57:53.937Z,85.34
2019-03-20T21:00:27.259Z,85.48
2019-03-20T21:02:55.986Z,85.40
2019-03-20T21:05:25.819Z,85.29
2019-03-20T21:07:54.505Z,85.29
2019-03-20T21:10:26.504Z,85.30
2019-03-20T21:12:57.170Z,85.25
2019-03-20T21:15:34.737Z,85.25
2019-03-20T21:18:34.580Z,85.18
2019-03-20T21:21:03.395Z,85.37
2019-03-20T21:23:40.807Z,85.24
2019-03-20T21:26:27.799Z,85.33
2019-03-20T21:29:33.967Z,85.19
2019-03-20T21:32:31.238Z,85.13
2019-03-20T21:35:28.442Z,85.10
2019-03-20T21:38:05.709Z,85.10
2019-03-20T21:40:55.173Z,85.35
2019-03-20T21:43:47.678Z,85.81
2019-03-20T21:46:37.405Z,85.88
2019-03-20T21:49:06.204Z,86.01
2019-03-20T21:51:34.880Z,86.02
2019-03-20T21:54:15.268Z,86.28
2019-03-20T21:57:06.784Z,86.37
2019-03-20T21:59:59.230Z,86.18
2019-03-20T22:02:45.181Z,86.18
2019-03-20T22:05:31.730Z,86.30
2019-03-20T22:08:00.579Z,86.44
2019-03-20T22:10:48.338Z,86.38
2019-03-20T22:13:32.009Z,86.62
2019-03-20T22:16:20.195Z,86.60
2019-03-20T22:19:22.574Z,86.65
2019-03-20T22:22:05.762Z,86.86
2019-03-20T22:24:49.269Z,87.45
2019-03-20T22:27:41.327Z,87.51
2019-03-20T22:30:10.501Z,87.54
2019-03-20T22:33:06.494Z,87.70
2019-03-20T22:35:40.714Z,87.90
2019-03-20T22:38:12.606Z,88.18
2019-03-20T22:41:17.657Z,88.54
2019-03-20T22:43:49.165Z,88.86
2019-03-20T22:46:29.995Z,88.86
2019-03-20T22:49:16.357Z,89.05
2019-03-20T22:51:50.605Z,89.17
2019-03-20T22:54:38.454Z,89.22
2019-03-20T22:57:25.724Z,89.36
2019-03-20T22:59:54.334Z,89.65
2019-03-20T23:02:37.209Z,90.10
2019-03-20T23:05:09.338Z,90.10
2019-03-20T23:07:38.005Z,90.12
2019-03-20T23:10:12.101Z,90.33
2019-03-20T23:12:40.688Z,90.51
2019-03-20T23:15:12.963Z,90.66
2019-03-20T23:17:42.033Z,90.90
2019-03-20T23:20:13.618Z,90.96
2019-03-20T23:22:42.427Z,90.93
2019-03-20T23:25:12.499Z,91.21
2019-03-20T23:27:41.115Z,91.71
2019-03-20T23:30:15.725Z,91.82
2019-03-20T23:32:44.748Z,92.07
2019-03-20T23:35:13.321Z,92.16
2019-03-20T23:37:41.970Z,92.19
2019-03-20T23:40:13.334Z,92.21
2019-03-20T23:42:43.183Z,92.38
2019-03-20T23:45:15.079Z,92.53
2019-03-20T23:47:47.284Z,92.60
2019-03-20T23:50:15.956Z,92.66
2019-03-20T23:52:44.707Z,92.69
2019-03-20T23:55:13.523Z,92.83
2019-03-20T23:57:42.181Z,92.99
